N08 weather

Flanagan Field
Farmville, North Carolina, United States

Public forecast

Using degrees Fahrenheit for public forecast. Weather courtesy of forecast.io.

METAR (pilot weather report)

Closest report is Pitt Greenville Airport, 9.8 nm (18.1 km) ENE. Retrieved 2019/06/18 10:30 UTC (0 seconds ago):

KPGV 181030Z AUTO 22006KT 10SM CLR 23/22 A3005 RMK AO2

TAF (pilot weather forecast)

Closest forecast is Pitt Greenville Airport, 9.8 nm (18.1 km) ENE. Retrieved 2019/06/18 06:27 UTC (4 hours ago):

TAF KPGV 180525Z 1806/1906 20006KT P6SM FEW250 FM181400 22009G15KT P6SM FEW030 FM182000 20011G18KT P6SM BKN050 FM190100 18009KT P6SM FEW045 SCT110 AMD LTD TO CLD VIS AND WIND